Time;durP1;ratioP1;P1;durP2;ratioP2;P2;SDS_P1;SDS_P2;PMS_P1;PMS_P2;Temp;Humidity;BMP_temperature;BMP_pressure;BME280_temperature;BME280_humidity;BME280_pressure;Samples;Min_cycle;Max_cycle;Signal;HPM_P1;HPM_P2
2022/09/29 00:00:08;;;;;;;32.83;30.77;;;;;;;6.96;100.00;99878.59;5072193;28;20429;-46
2022/09/29 00:02:35;;;;;;;31.97;29.97;;;;;;;6.99;100.00;99875.56;5072285;28;20438;-47
2022/09/29 00:05:03;;;;;;;32.37;30.27;;;;;;;6.99;100.00;99875.56;5072324;28;20950;-45
2022/09/29 00:07:32;;;;;;;33.67;31.50;;;;;;;6.99;100.00;99870.25;5071372;28;20466;-45
2022/09/29 00:10:00;;;;;;;32.17;30.00;;;;;;;7.00;100.00;99878.00;5072134;28;20430;-44
2022/09/29 00:12:28;;;;;;;32.53;30.50;;;;;;;7.01;100.00;99868.22;5071812;28;20438;-45
2022/09/29 00:14:56;;;;;;;32.87;30.87;;;;;;;7.01;100.00;99863.75;5071872;28;20466;-46
2022/09/29 00:17:23;;;;;;;31.63;29.93;;;;;;;7.02;100.00;99868.00;5071204;28;20563;-48
2022/09/29 00:19:51;;;;;;;32.27;30.30;;;;;;;7.01;100.00;99866.38;5061588;28;20855;-45
2022/09/29 00:22:18;;;;;;;32.40;30.47;;;;;;;7.01;100.00;99861.09;5063146;28;20984;-45
2022/09/29 00:24:47;;;;;;;33.97;31.80;;;;;;;7.01;100.00;99865.56;5071863;28;20431;-47
2022/09/29 00:27:16;;;;;;;31.37;29.57;;;;;;;7.00;100.00;99867.41;5071225;28;20885;-46
2022/09/29 00:29:44;;;;;;;32.23;30.33;;;;;;;7.02;100.00;99869.84;5071970;28;20427;-43
2022/09/29 00:32:11;;;;;;;31.33;29.50;;;;;;;7.01;100.00;99873.53;5071240;28;20491;-43
2022/09/29 00:34:39;;;;;;;32.83;30.80;;;;;;;7.02;100.00;99867.19;5071760;28;20531;-46
2022/09/29 00:37:07;;;;;;;31.53;29.53;;;;;;;7.01;100.00;99862.91;5071189;28;20808;-45
2022/09/29 00:39:34;;;;;;;30.50;28.70;;;;;;;7.00;100.00;99863.91;5071685;28;20434;-45
2022/09/29 00:42:02;;;;;;;31.13;29.33;;;;;;;7.00;100.00;99871.88;5071326;28;20492;-43
2022/09/29 00:44:55;;;;;;;31.30;29.47;;;;;;;7.00;100.00;99867.41;5071792;28;20472;-45
2022/09/29 00:47:24;;;;;;;32.27;30.37;;;;;;;6.98;100.00;99864.13;5071024;28;20462;-42
2022/09/29 00:49:58;;;;;;;31.57;29.73;;;;;;;6.98;100.00;99863.31;5071508;28;20439;-44
2022/09/29 00:52:28;;;;;;;32.73;30.53;;;;;;;6.97;100.00;99865.13;5071154;28;20511;-43
2022/09/29 00:55:00;;;;;;;31.40;29.50;;;;;;;6.98;100.00;99860.66;5071599;28;20470;-46
2022/09/29 00:57:31;;;;;;;34.27;32.20;;;;;;;6.97;100.00;99859.00;5071053;28;20471;-44
2022/09/29 01:00:04;;;;;;;32.10;30.10;;;;;;;6.97;100.00;99865.13;5071560;28;20835;-42
2022/09/29 01:02:33;;;;;;;33.77;31.37;;;;;;;6.96;100.00;99863.47;5071116;28;20441;-44
2022/09/29 01:05:07;;;;;;;34.20;32.00;;;;;;;6.96;100.00;99860.84;5071296;28;20430;-44
2022/09/29 01:07:34;;;;;;;32.40;30.47;;;;;;;6.96;100.00;99860.03;5070826;28;20458;-43
2022/09/29 01:10:02;;;;;;;32.27;30.37;;;;;;;6.95;100.00;99861.88;5071454;28;20492;-43
2022/09/29 01:12:30;;;;;;;31.70;29.80;;;;;;;6.93;100.00;99861.22;5071054;28;20432;-44
2022/09/29 01:14:58;;;;;;;31.37;29.57;;;;;;;6.94;100.00;99862.03;5071184;28;20986;-44
2022/09/29 01:17:27;;;;;;;31.87;29.93;;;;;;;6.93;100.00;99871.81;5070467;28;20493;-44
2022/09/29 01:20:05;;;;;;;31.67;29.50;;;;;;;6.93;100.00;99868.38;5060910;28;20517;-43
2022/09/29 01:23:10;;;;;;;32.63;30.70;;;;;;;6.93;100.00;99863.88;5062710;28;20431;-46
2022/09/29 01:26:00;;;;;;;32.80;30.83;;;;;;;6.93;100.00;99874.47;5070979;28;20822;-42
2022/09/29 01:28:46;;;;;;;31.40;29.50;;;;;;;6.93;100.00;99871.03;5070686;28;20497;-42
2022/09/29 01:31:21;;;;;;;32.07;30.07;;;;;;;6.91;100.00;99878.34;5070949;28;20437;-44
2022/09/29 01:33:56;;;;;;;30.83;28.93;;;;;;;6.90;100.00;99877.50;5071121;28;20487;-44
2022/09/29 01:36:32;;;;;;;30.67;28.70;;;;;;;6.90;100.00;99874.06;5070642;28;20499;-43
2022/09/29 01:39:10;;;;;;;29.87;28.13;;;;;;;6.89;100.00;99867.13;5071030;28;20426;-43
2022/09/29 01:41:44;;;;;;;30.50;28.70;;;;;;;6.89;100.00;99864.47;5071461;28;21000;-44
2022/09/29 01:44:18;;;;;;;31.23;29.37;;;;;;;6.89;100.00;99869.78;5074757;28;20426;-45
2022/09/29 01:46:53;;;;;;;30.40;28.67;;;;;;;6.89;100.00;99869.78;5074047;28;20466;-43
2022/09/29 01:49:24;;;;;;;32.17;30.13;;;;;;;6.89;100.00;99875.06;5074923;28;20414;-44
2022/09/29 01:51:57;;;;;;;32.30;30.40;;;;;;;6.87;100.00;99869.16;5074467;28;20442;-47
2022/09/29 01:54:30;;;;;;;32.37;30.17;;;;;;;6.88;100.00;99870.78;5074482;28;20534;-45
2022/09/29 01:57:02;;;;;;;30.30;28.37;;;;;;;6.89;100.00;99872.41;5073818;28;20470;-44
2022/09/29 01:59:36;;;;;;;30.27;28.40;;;;;;;6.91;100.00;99873.03;5074757;28;20487;-45
2022/09/29 02:02:09;;;;;;;31.57;29.67;;;;;;;6.91;100.00;99876.50;5074310;28;20494;-44
2022/09/29 02:04:43;;;;;;;30.43;28.63;;;;;;;6.92;100.00;99874.69;5074546;28;20448;-45
2022/09/29 02:07:16;;;;;;;32.40;30.20;;;;;;;6.93;100.00;99877.13;5073657;28;20492;-42
2022/09/29 02:09:52;;;;;;;31.43;29.43;;;;;;;6.93;100.00;99881.63;5074513;28;20426;-45
2022/09/29 02:12:26;;;;;;;31.80;29.70;;;;;;;6.93;100.00;99871.81;5074212;28;20488;-45
2022/09/29 02:14:56;;;;;;;33.60;30.93;;;;;;;6.95;100.00;99872.47;5074157;28;20470;-44
2022/09/29 02:17:31;;;;;;;34.47;31.97;;;;;;;6.96;100.00;99876.72;5073458;28;20474;-43
2022/09/29 02:19:59;;;;;;;30.70;28.70;;;;;;;6.99;100.00;99873.69;5063674;28;20495;-46
2022/09/29 02:22:26;;;;;;;32.73;30.47;;;;;;;7.01;100.00;99874.34;5065661;28;20507;-45
2022/09/29 02:24:58;;;;;;;32.40;30.50;;;;;;;7.02;100.00;99873.31;5073911;28;20923;-47
2022/09/29 02:27:28;;;;;;;34.27;31.97;;;;;;;7.03;100.00;99861.69;5073486;28;20477;-46
2022/09/29 02:29:57;;;;;;;33.67;31.33;;;;;;;7.05;100.00;99867.63;5073902;28;20430;-42
2022/09/29 02:32:27;;;;;;;34.47;31.97;;;;;;;7.07;100.00;99870.09;5096751;22;20535;-44
2022/09/29 02:34:56;;;;;;;32.60;30.43;;;;;;;7.07;100.00;99868.25;5067022;28;20470;-44
2022/09/29 02:37:47;;;;;;;33.87;31.47;;;;;;;7.09;100.00;99866.22;5073566;28;20466;-49
2022/09/29 02:40:30;;;;;;;35.37;32.77;;;;;;;7.12;100.00;99865.84;5073914;28;20426;-44
2022/09/29 02:43:13;;;;;;;36.77;34.07;;;;;;;7.15;100.00;99869.94;5053539;28;21030;-44
2022/09/29 02:45:54;;;;;;;37.83;34.67;;;;;;;7.17;100.00;99863.41;5053893;28;20428;-45
2022/09/29 02:48:42;;;;;;;37.47;34.50;;;;;;;7.22;100.00;99873.44;5053271;28;20929;-51
2022/09/29 02:51:17;;;;;;;39.20;35.77;;;;;;;7.26;100.00;99866.72;5053343;28;20521;-47
2022/09/29 02:53:58;;;;;;;40.00;36.63;;;;;;;7.28;100.00;99863.88;5053187;28;20426;-45
2022/09/29 02:56:36;;;;;;;37.53;34.43;;;;;;;7.31;100.00;99866.13;5053120;28;20475;-45
2022/09/29 02:59:07;;;;;;;42.70;39.07;;;;;;;7.34;100.00;99863.09;5053557;28;20427;-45
2022/09/29 03:01:40;;;;;;;43.63;39.30;;;;;;;7.36;100.00;99861.06;5053692;28;20455;-46
2022/09/29 03:04:09;;;;;;;40.57;36.80;;;;;;;7.38;100.00;99861.69;5053663;28;20482;-45
2022/09/29 03:06:36;;;;;;;44.77;40.40;;;;;;;7.41;100.00;99863.94;5053035;28;20455;-50
2022/09/29 03:09:04;;;;;;;41.17;37.70;;;;;;;7.43;100.00;99861.91;5053283;28;20952;-50
2022/09/29 03:11:32;;;;;;;45.97;41.30;;;;;;;7.45;100.00;99854.56;5053010;28;20481;-46
2022/09/29 03:14:00;;;;;;;42.80;39.00;;;;;;;7.46;100.00;99861.53;5053002;28;20439;-45
2022/09/29 03:16:27;;;;;;;44.77;40.63;;;;;;;7.47;100.00;99858.66;5052620;28;21049;-47
2022/09/29 03:18:55;;;;;;;41.60;38.10;;;;;;;7.49;100.00;99864.59;5053182;28;20489;-45
2022/09/29 03:21:24;;;;;;;42.40;38.20;;;;;;;7.51;100.00;99862.56;5061368;28;20500;-47
2022/09/29 03:23:52;;;;;;;41.43;37.73;;;;;;;7.53;100.00;99865.00;5073043;28;20430;-47
2022/09/29 03:26:24;;;;;;;38.87;35.67;;;;;;;7.54;100.00;99866.66;5072377;28;20433;-47
2022/09/29 03:28:52;;;;;;;42.47;38.63;;;;;;;7.54;100.00;99858.69;5072792;28;20927;-48
2022/09/29 03:31:20;;;;;;;46.23;41.53;;;;;;;7.55;100.00;99865.63;5072536;28;20462;-46
2022/09/29 03:33:48;;;;;;;43.97;40.10;;;;;;;7.55;100.00;99865.63;5072938;28;20434;-45
2022/09/29 03:36:16;;;;;;;45.30;41.00;;;;;;;7.55;100.00;99868.28;5072139;28;20979;-45
2022/09/29 03:38:46;;;;;;;44.70;40.47;;;;;;;7.56;100.00;99861.94;5072845;28;20453;-45
2022/09/29 03:41:14;;;;;;;43.47;39.40;;;;;;;7.56;100.00;99862.78;5072315;28;20450;-48
2022/09/29 03:43:42;;;;;;;43.90;40.20;;;;;;;7.58;100.00;99860.75;5072028;28;20480;-50
2022/09/29 03:46:09;;;;;;;42.30;38.47;;;;;;;7.59;100.00;99858.91;5071984;28;20476;-45
2022/09/29 03:48:38;;;;;;;41.03;37.63;;;;;;;7.60;100.00;99864.03;5072312;28;20804;-50
2022/09/29 03:51:06;;;;;;;43.00;39.10;;;;;;;7.64;100.00;99859.16;5072093;28;20508;-48
2022/09/29 03:53:34;;;;;;;43.30;39.40;;;;;;;7.64;100.00;99861.78;5072245;28;20842;-52
2022/09/29 03:56:04;;;;;;;47.20;42.70;;;;;;;7.64;100.00;99861.78;5072404;28;20470;-50
2022/09/29 03:58:32;;;;;;;43.27;39.57;;;;;;;7.66;100.00;99867.72;5071819;28;20508;-46
2022/09/29 04:01:00;;;;;;;44.97;40.63;;;;;;;7.68;100.00;99868.31;5072061;28;20516;-50
2022/09/29 04:03:28;;;;;;;45.80;41.57;;;;;;;7.69;100.00;99862.00;5072212;28;20434;-45
2022/09/29 04:05:56;;;;;;;44.77;40.40;;;;;;;7.71;100.00;99870.56;5071293;28;20484;-49
2022/09/29 04:08:23;;;;;;;47.53;42.97;;;;;;;7.71;100.00;99868.75;5071646;28;20469;-45
2022/09/29 04:10:51;;;;;;;44.47;40.47;;;;;;;7.73;100.00;99869.38;5072001;28;20454;-46
2022/09/29 04:13:20;;;;;;;49.83;44.57;;;;;;;7.75;100.00;99866.53;5071962;28;21005;-52
2022/09/29 04:15:48;;;;;;;45.57;40.97;;;;;;;7.76;100.00;99873.47;5072036;28;20882;-49
2022/09/29 04:18:16;;;;;;;46.40;42.10;;;;;;;7.77;100.00;99872.44;5071508;28;20520;-51
2022/09/29 04:20:43;;;;;;;49.40;44.33;;;;;;;7.79;100.00;99875.72;5063212;28;20879;-50
2022/09/29 04:23:12;;;;;;;51.00;46.13;;;;;;;7.78;100.00;99876.75;5067261;28;20435;-46
2022/09/29 04:25:39;;;;;;;47.80;43.37;;;;;;;7.79;100.00;99879.19;5072039;28;20431;-49
2022/09/29 04:28:07;;;;;;;47.73;43.00;;;;;;;7.82;100.00;99872.69;5071488;28;20466;-50
2022/09/29 04:30:36;;;;;;;44.67;40.87;;;;;;;7.85;100.00;99877.59;5071552;28;21004;-48
2022/09/29 04:33:04;;;;;;;50.70;45.70;;;;;;;7.84;100.00;99875.94;5071634;28;20438;-48
2022/09/29 04:35:31;;;;;;;48.07;43.67;;;;;;;7.86;100.00;99876.56;5071737;28;20469;-45
2022/09/29 04:38:03;;;;;;;47.33;42.90;;;;;;;7.88;100.00;99871.06;5071365;28;20458;-45
2022/09/29 04:40:31;;;;;;;48.07;43.77;;;;;;;7.90;100.00;99872.50;5071767;28;20479;-47
2022/09/29 04:42:59;;;;;;;48.30;43.40;;;;;;;7.91;100.00;99868.00;5071560;28;20438;-47
2022/09/29 04:45:26;;;;;;;48.17;43.63;;;;;;;7.93;100.00;99887.19;5071614;28;20959;-53
2022/09/29 04:47:55;;;;;;;46.27;41.97;;;;;;;7.94;100.00;99881.69;5071206;28;20469;-48
2022/09/29 04:50:23;;;;;;;49.47;44.73;;;;;;;7.94;100.00;99875.56;5071733;28;20435;-50
2022/09/29 04:52:51;;;;;;;48.77;43.77;;;;;;;7.94;100.00;99876.38;5071548;28;20487;-47
2022/09/29 04:55:18;;;;;;;49.50;45.00;;;;;;;7.96;100.00;99873.53;5071666;28;20464;-51
2022/09/29 04:57:47;;;;;;;47.47;42.80;;;;;;;7.97;100.00;99867.19;5070989;28;20470;-49
2022/09/29 05:00:15;;;;;;;47.57;42.73;;;;;;;7.99;100.00;99871.28;5071401;28;20434;-49
2022/09/29 05:02:44;;;;;;;47.77;43.20;;;;;;;7.99;100.00;99870.47;5071421;28;20457;-46
2022/09/29 05:05:18;;;;;;;49.17;44.27;;;;;;;8.00;100.00;99875.59;5071745;28;20452;-49
2022/09/29 05:07:46;;;;;;;43.43;39.53;;;;;;;8.03;100.00;99877.84;5071089;28;20470;-46
2022/09/29 05:10:14;;;;;;;49.70;44.80;;;;;;;8.05;100.00;99877.63;5071474;28;20488;-48
2022/09/29 05:12:47;;;;;;;46.60;42.53;;;;;;;8.07;100.00;99879.06;5070905;28;20454;-46
2022/09/29 05:15:15;;;;;;;48.40;43.70;;;;;;;8.09;100.00;99889.50;5071698;28;20765;-53
2022/09/29 05:17:43;;;;;;;49.53;44.67;;;;;;;8.11;100.00;99884.78;5073363;28;20485;-52
2022/09/29 05:20:11;;;;;;;47.57;43.07;;;;;;;8.14;100.00;99884.38;5070003;28;20943;-46
2022/09/29 05:22:40;;;;;;;48.40;43.70;;;;;;;8.17;100.00;99887.47;5066669;28;21016;-52
2022/09/29 05:25:09;;;;;;;47.70;43.53;;;;;;;8.20;100.00;99895.03;5075069;28;20435;-47
2022/09/29 05:27:37;;;;;;;46.93;42.43;;;;;;;8.22;100.00;99898.28;5074873;28;20558;-47
2022/09/29 05:30:06;;;;;;;47.20;42.93;;;;;;;8.24;100.00;99898.91;5075256;28;20842;-48
2022/09/29 05:32:33;;;;;;;49.37;44.97;;;;;;;8.26;100.00;99896.88;5074597;28;20519;-51
2022/09/29 05:35:01;;;;;;;47.87;43.57;;;;;;;8.27;100.00;99892.41;5075092;28;20504;-45
2022/09/29 05:37:29;;;;;;;46.77;42.87;;;;;;;8.28;100.00;99892.19;5074460;28;20470;-46
2022/09/29 05:39:58;;;;;;;48.00;43.70;;;;;;;8.31;100.00;99891.81;5074873;28;20434;-45
2022/09/29 05:42:26;;;;;;;48.87;44.57;;;;;;;8.31;100.00;99894.47;5074758;28;20797;-45
2022/09/29 05:44:54;;;;;;;46.80;42.27;;;;;;;8.33;100.00;99892.41;5074948;28;20810;-48
2022/09/29 05:47:23;;;;;;;45.37;41.60;;;;;;;8.34;100.00;99893.22;5074360;28;21029;-45
2022/09/29 05:49:50;;;;;;;48.30;43.83;;;;;;;8.34;100.00;99888.75;5074738;28;20475;-47
2022/09/29 05:52:18;;;;;;;50.13;45.20;;;;;;;8.34;100.00;99893.22;5074263;28;20454;-47
2022/09/29 05:54:49;;;;;;;44.57;40.80;;;;;;;8.39;100.00;99903.25;5074814;28;20430;-47
2022/09/29 05:57:19;;;;;;;44.20;40.47;;;;;;;8.39;100.00;99901.44;5074284;28;20474;-45
2022/09/29 05:59:46;;;;;;;48.07;43.50;;;;;;;8.43;100.00;99901.81;5074619;28;20838;-47
2022/09/29 06:02:15;;;;;;;49.37;44.50;;;;;;;8.41;100.00;99914.50;5074211;28;20462;-46
2022/09/29 06:04:43;;;;;;;46.80;42.80;;;;;;;8.40;100.00;99929.63;5074376;28;20480;-45
2022/09/29 06:07:11;;;;;;;46.27;42.23;;;;;;;8.35;100.00;99937.38;5074196;28;20531;-45
2022/09/29 06:09:38;;;;;;;46.17;41.57;;;;;;;8.39;100.00;99930.66;5074492;28;20431;-45
2022/09/29 06:12:06;;;;;;;44.03;39.80;;;;;;;8.44;100.00;99930.03;5073986;28;20503;-44
2022/09/29 06:14:35;;;;;;;44.37;40.60;;;;;;;8.51;100.00;99938.84;5074309;28;20492;-44
2022/09/29 06:17:02;;;;;;;45.90;41.97;;;;;;;8.56;100.00;99945.19;5073719;28;20470;-44
2022/09/29 06:19:30;;;;;;;42.47;38.80;;;;;;;8.61;100.00;99956.00;5068857;28;20427;-44
2022/09/29 06:21:57;;;;;;;42.50;38.57;;;;;;;8.69;100.00;99942.53;5065665;28;20500;-44
2022/09/29 06:24:25;;;;;;;41.67;38.07;;;;;;;8.73;100.00;99945.59;5074134;28;20555;-45
2022/09/29 06:26:52;;;;;;;40.53;37.27;;;;;;;8.77;100.00;99942.34;5073806;28;20865;-45
2022/09/29 06:29:20;;;;;;;40.20;36.60;;;;;;;8.80;100.00;99949.09;5073098;28;20457;-45
2022/09/29 06:31:49;;;;;;;39.57;36.47;;;;;;;8.79;100.00;99942.94;5073454;28;20515;-44
2022/09/29 06:34:17;;;;;;;40.10;36.57;;;;;;;8.80;100.00;99933.13;5074226;28;20434;-45
2022/09/29 06:39:30;;;;;;;39.33;35.90;;;;;;;8.78;100.00;99937.84;5073952;28;20431;-46
2022/09/29 06:41:58;;;;;;;36.30;33.17;;;;;;;8.83;100.00;99930.06;5073650;28;20507;-44
2022/09/29 06:44:29;;;;;;;35.87;32.20;;;;;;;8.86;100.00;99934.97;5073639;28;20434;-51
2022/09/29 06:46:58;;;;;;;31.40;29.30;;;;;;;8.94;100.00;99934.75;5073324;28;20516;-45
2022/09/29 06:49:26;;;;;;;30.30;28.50;;;;;;;9.00;100.00;99928.63;5073655;28;20434;-50
2022/09/29 06:51:54;;;;;;;30.20;27.90;;;;;;;9.06;100.00;99921.66;5073437;28;20780;-49
2022/09/29 06:54:23;;;;;;;28.23;26.53;;;;;;;9.09;100.00;99924.72;5073554;28;20434;-46
2022/09/29 06:56:52;;;;;;;27.33;25.77;;;;;;;9.14;100.00;99916.13;5072963;28;20470;-45
2022/09/29 06:59:20;;;;;;;25.63;24.13;;;;;;;9.20;100.00;99918.75;5073425;28;20460;-50
2022/09/29 07:01:48;;;;;;;26.07;24.67;;;;;;;9.26;100.00;99922.44;5073259;28;20854;-47
2022/09/29 07:04:20;;;;;;;24.40;23.20;;;;;;;9.29;100.00;99925.50;5073464;28;20430;-45
2022/09/29 07:06:49;;;;;;;24.17;23.17;;;;;;;9.36;100.00;99928.16;5072943;28;20462;-45
2022/09/29 07:09:16;;;;;;;24.33;23.07;;;;;;;9.42;100.00;99924.66;5073131;28;20476;-50
2022/09/29 07:11:46;;;;;;;24.87;23.80;;;;;;;9.51;100.00;99923.41;5073209;28;20531;-49
2022/09/29 07:14:14;;;;;;;25.80;24.30;;;;;;;9.58;100.00;99931.38;5073131;28;20460;-44
2022/09/29 07:16:42;;;;;;;25.37;24.17;;;;;;;9.60;100.00;99931.97;5072715;28;20454;-44
2022/09/29 07:19:11;;;;;;;24.90;23.80;;;;;;;9.60;100.00;99935.47;5069268;28;20507;-49
2022/09/29 07:21:40;;;;;;;25.10;23.80;;;;;;;9.60;100.00;99932.81;5063450;28;20462;-47
2022/09/29 07:24:08;;;;;;;24.83;23.83;;;;;;;9.62;100.00;99924.59;5072848;28;20438;-44
2022/09/29 07:26:36;;;;;;;24.90;23.70;;;;;;;9.62;100.00;99935.25;5072814;28;20484;-44
2022/09/29 07:29:04;;;;;;;24.47;23.37;;;;;;;9.61;100.00;99936.28;5072831;28;20919;-44
2022/09/29 07:31:32;;;;;;;24.93;23.83;;;;;;;9.64;100.00;99928.69;5072540;28;20462;-44
2022/09/29 07:34:11;;;;;;;27.27;25.77;;;;;;;9.66;100.00;99931.97;5072814;28;21016;-48
2022/09/29 07:36:40;;;;;;;26.90;25.33;;;;;;;9.68;100.00;99923.75;5072277;28;20469;-48
2022/09/29 07:39:08;;;;;;;26.17;24.50;;;;;;;9.69;100.00;99930.72;5072726;28;20878;-45
2022/09/29 07:41:36;;;;;;;25.07;23.87;;;;;;;9.68;100.00;99924.56;5072425;28;20863;-44
2022/09/29 07:44:03;;;;;;;23.50;22.50;;;;;;;9.67;100.00;99930.13;5072625;28;20898;-44
2022/09/29 07:46:31;;;;;;;25.77;24.50;;;;;;;9.66;100.00;99921.31;5072130;28;20519;-51
2022/09/29 07:48:59;;;;;;;25.50;24.30;;;;;;;9.71;100.00;99932.13;5072424;28;20484;-44
2022/09/29 07:51:27;;;;;;;25.80;24.60;;;;;;;9.78;100.00;99932.94;5072342;28;20500;-44
2022/09/29 07:53:56;;;;;;;25.90;24.70;;;;;;;9.82;100.00;99936.00;5072547;28;20446;-43
2022/09/29 07:56:23;;;;;;;25.50;24.20;;;;;;;9.84;100.00;99933.94;5071950;28;20483;-51
2022/09/29 07:58:51;;;;;;;27.20;25.80;;;;;;;9.86;100.00;99942.53;5072312;28;20470;-49
2022/09/29 08:01:19;;;;;;;25.70;24.40;;;;;;;9.86;100.00;99939.84;5071828;28;20973;-44
2022/09/29 08:03:51;;;;;;;25.77;24.57;;;;;;;9.85;100.00;99941.72;5072238;28;20437;-48
2022/09/29 08:06:19;;;;;;;24.63;23.63;;;;;;;9.85;100.00;99940.91;5071969;28;20484;-44
2022/09/29 08:08:47;;;;;;;24.47;23.03;;;;;;;9.86;100.00;99940.69;5072281;28;20427;-46
2022/09/29 08:11:33;;;;;;;23.90;22.80;;;;;;;9.87;100.00;99949.50;5071896;28;20967;-48
2022/09/29 08:14:01;;;;;;;24.10;23.10;;;;;;;9.89;100.00;99944.75;5072025;28;20427;-44
2022/09/29 08:16:29;;;;;;;25.00;23.80;;;;;;;9.88;100.00;99951.97;5071860;28;20492;-46
2022/09/29 08:18:57;;;;;;;24.83;23.63;;;;;;;9.87;100.00;99952.97;5070229;28;20608;-44
2022/09/29 08:21:24;;;;;;;25.53;24.47;;;;;;;9.90;100.00;99951.75;5060465;28;20509;-45
2022/09/29 08:23:52;;;;;;;23.97;22.77;;;;;;;9.92;100.00;99952.34;5072020;28;20431;-47
2022/09/29 08:26:22;;;;;;;24.60;23.30;;;;;;;9.93;100.00;99951.31;5071414;28;20484;-49
2022/09/29 08:29:07;;;;;;;23.93;22.93;;;;;;;9.95;100.00;99947.41;5071941;28;20916;-47
2022/09/29 08:31:37;;;;;;;23.90;22.90;;;;;;;9.94;100.00;99953.78;5072115;28;20469;-51
2022/09/29 08:34:06;;;;;;;24.37;23.37;;;;;;;9.92;100.00;99958.47;5071846;28;20439;-53
2022/09/29 08:36:35;;;;;;;24.07;23.17;;;;;;;9.92;100.00;99957.66;5071338;28;20511;-53
2022/09/29 08:39:02;;;;;;;24.40;23.30;;;;;;;9.91;100.00;99964.03;5071635;28;20518;-48
2022/09/29 08:41:40;;;;;;;24.20;23.30;;;;;;;9.90;100.00;99962.38;5071416;28;20507;-50
2022/09/29 08:44:14;;;;;;;24.03;23.00;;;;;;;9.92;100.00;99965.66;5071754;28;20938;-50
2022/09/29 08:47:07;;;;;;;24.13;23.13;;;;;;;9.96;100.00;99965.03;5071261;28;21014;-47
2022/09/29 08:49:41;;;;;;;24.70;23.70;;;;;;;10.00;100.00;99962.78;5071492;28;20437;-49
2022/09/29 08:52:13;;;;;;;24.90;23.90;;;;;;;10.01;100.00;99964.38;5071007;28;20824;-46
2022/09/29 08:54:47;;;;;;;24.70;23.70;;;;;;;10.02;100.00;99964.19;5071664;28;20487;-46
2022/09/29 08:57:18;;;;;;;24.70;23.60;;;;;;;10.05;100.00;99959.47;5071142;28;20466;-49
2022/09/29 08:59:53;;;;;;;24.40;23.30;;;;;;;10.02;100.00;99950.03;5071471;28;20516;-47
2022/09/29 09:02:56;;;;;;;23.97;23.03;;;;;;;10.00;100.00;99952.13;5070975;28;20454;-46
2022/09/29 09:05:42;;;;;;;24.53;23.53;;;;;;;10.08;100.00;99962.53;5064493;28;20978;-46
2022/09/29 09:08:18;;;;;;;24.40;23.40;;;;;;;10.09;100.00;99958.84;5070815;28;20465;-50
2022/09/29 09:10:51;;;;;;;24.57;23.47;;;;;;;10.11;100.00;99962.09;5071362;28;20456;-48
2022/09/29 09:13:45;;;;;;;24.30;23.30;;;;;;;10.17;100.00;99961.28;5071537;28;20434;-46
2022/09/29 09:16:26;;;;;;;23.37;22.40;;;;;;;10.14;100.00;99966.22;5071052;28;20453;-47
2022/09/29 09:19:20;;;;;;;23.37;22.37;;;;;;;10.13;100.00;99977.84;5070391;28;20517;-54
2022/09/29 09:21:56;;;;;;;23.60;22.70;;;;;;;10.10;100.00;99963.13;5051542;28;20447;-52
2022/09/29 09:24:35;;;;;;;23.50;22.60;;;;;;;10.07;100.00;99968.03;5051332;28;20936;-50
2022/09/29 09:27:04;;;;;;;23.20;22.30;;;;;;;10.05;100.00;99968.28;5050725;28;20984;-53
2022/09/29 09:29:37;;;;;;;23.80;22.80;;;;;;;10.01;100.00;99975.03;5051460;28;20517;-49
2022/09/29 09:32:10;;;;;;;22.97;22.17;;;;;;;10.02;100.00;99982.00;5050958;28;20996;-50
2022/09/29 09:34:44;;;;;;;23.70;22.70;;;;;;;10.00;100.00;99982.22;5051218;28;20951;-49
2022/09/29 09:37:19;;;;;;;23.60;22.50;;;;;;;10.02;100.00;99977.50;5050508;28;20545;-53
2022/09/29 09:39:54;;;;;;;23.50;22.50;;;;;;;10.05;100.00;99978.94;5051497;28;20850;-51
2022/09/29 09:42:27;;;;;;;23.60;22.60;;;;;;;10.02;100.00;99977.50;5051096;28;20501;-51
2022/09/29 09:44:59;;;;;;;24.23;23.03;;;;;;;10.07;100.00;99982.19;5051252;28;20489;-52
2022/09/29 09:47:34;;;;;;;26.63;25.43;;;;;;;10.08;100.00;99980.34;5050730;28;20459;-53
2022/09/29 09:50:12;;;;;;;25.07;23.97;;;;;;;10.08;100.00;99983.84;5051228;28;20427;-53
2022/09/29 09:52:44;;;;;;;26.57;25.20;;;;;;;10.12;100.00;99986.91;5050797;28;20524;-54
2022/09/29 09:55:16;;;;;;;23.90;22.80;;;;;;;10.14;100.00;99984.84;5051163;28;20640;-54
2022/09/29 09:57:57;;;;;;;23.40;22.40;;;;;;;10.21;100.00;99983.81;5050659;28;20517;-51
2022/09/29 10:00:28;;;;;;;25.73;24.47;;;;;;;10.24;100.00;99983.41;5050821;28;20548;-49
2022/09/29 10:03:04;;;;;;;26.40;24.80;;;;;;;10.26;100.00;99989.31;5051100;28;20443;-52
2022/09/29 10:05:37;;;;;;;24.43;23.33;;;;;;;10.30;100.00;99989.72;5054403;28;20422;-54
2022/09/29 10:08:07;;;;;;;24.50;23.50;;;;;;;10.25;100.00;99989.50;5054224;28;20455;-47
2022/09/29 10:10:34;;;;;;;23.60;22.60;;;;;;;10.27;100.00;99985.63;5054170;28;20481;-50
2022/09/29 10:13:05;;;;;;;25.37;24.07;;;;;;;10.29;100.00;99991.56;5054510;28;20435;-46
2022/09/29 10:15:36;;;;;;;23.50;22.60;;;;;;;10.32;100.00;99992.97;5054616;28;20778;-47
2022/09/29 10:18:12;;;;;;;24.90;23.80;;;;;;;10.32;100.00;99999.13;5053885;28;21049;-47
2022/09/29 10:20:41;;;;;;;25.67;24.27;;;;;;;10.35;100.00;99992.56;5062182;28;20482;-47
2022/09/29 10:23:26;;;;;;;24.97;23.90;;;;;;;10.34;100.00;99986.41;5069099;28;20503;-46
2022/09/29 10:25:58;;;;;;;26.27;24.97;;;;;;;10.37;100.00;99987.81;5074366;28;20433;-46
2022/09/29 10:28:30;;;;;;;24.67;23.57;;;;;;;10.48;100.00;99987.94;5073787;28;20508;-47
2022/09/29 10:30:57;;;;;;;24.63;23.53;;;;;;;10.52;100.00;99991.00;5071551;28;21051;-46
2022/09/29 10:33:26;;;;;;;24.80;23.70;;;;;;;10.52;100.00;99994.50;5063040;28;20434;-52
2022/09/29 10:36:07;;;;;;;24.30;23.30;;;;;;;10.53;100.00;99995.31;5074284;28;20492;-52
2022/09/29 10:38:36;;;;;;;25.07;23.97;;;;;;;10.50;100.00;99998.41;5073684;28;20462;-46
2022/09/29 10:41:06;;;;;;;26.37;24.97;;;;;;;10.53;100.00;99992.66;5073682;28;20525;-50
2022/09/29 10:43:37;;;;;;;24.13;23.13;;;;;;;10.50;100.00;99995.75;5073885;28;20438;-47
2022/09/29 10:46:06;;;;;;;24.20;23.20;;;;;;;10.48;100.00;99995.16;5073787;28;20430;-56
2022/09/29 10:48:35;;;;;;;23.53;22.63;;;;;;;10.53;100.00;100004.13;5073283;28;20831;-54
2022/09/29 10:51:04;;;;;;;24.50;23.50;;;;;;;10.58;100.00;100000.81;5073603;28;20847;-55
2022/09/29 10:53:37;;;;;;;24.40;23.30;;;;;;;10.57;100.00;99998.38;5074004;28;20461;-49
2022/09/29 10:56:14;;;;;;;23.10;22.20;;;;;;;10.64;100.00;100007.13;5073613;28;20434;-52
2022/09/29 10:58:45;;;;;;;23.70;22.70;;;;;;;10.69;100.00;100002.00;5073850;28;20450;-52
2022/09/29 11:01:31;;;;;;;24.20;23.17;;;;;;;10.76;100.00;100008.09;5073247;28;20446;-50
2022/09/29 11:04:03;;;;;;;24.90;23.70;;;;;;;10.77;100.00;99999.88;5073403;28;20452;-50
2022/09/29 11:06:33;;;;;;;24.40;23.40;;;;;;;10.80;100.00;100001.31;5073159;28;20446;-53
2022/09/29 11:09:04;;;;;;;24.90;23.70;;;;;;;10.81;100.00;100003.75;5073258;28;20988;-54
2022/09/29 11:11:34;;;;;;;24.67;23.60;;;;;;;10.85;100.00;100004.94;5073328;28;20442;-54
2022/09/29 11:14:01;;;;;;;25.03;23.90;;;;;;;10.88;100.00;100007.19;5073245;28;20457;-55
2022/09/29 11:16:32;;;;;;;24.37;23.27;;;;;;;10.91;100.00;100011.25;5072581;28;20490;-55
2022/09/29 11:19:05;;;;;;;23.90;22.90;;;;;;;10.93;100.00;100003.88;5071159;28;20430;-54
2022/09/29 11:21:57;;;;;;;25.63;24.03;;;;;;;10.95;100.00;100017.81;5062554;28;20980;-53
2022/09/29 11:24:39;;;;;;;24.90;23.73;;;;;;;10.99;100.00;100013.69;5073045;28;20928;-54
2022/09/29 11:27:17;;;;;;;25.17;23.77;;;;;;;11.02;100.00;100016.72;5072740;28;20512;-55
2022/09/29 11:29:55;;;;;;;25.00;23.90;;;;;;;11.08;100.00;100015.03;5072962;28;20430;-53
2022/09/29 11:32:38;;;;;;;24.23;23.23;;;;;;;11.15;100.00;100013.13;5072594;28;21034;-55
2022/09/29 11:35:18;;;;;;;25.03;23.97;;;;;;;11.22;100.00;100018.41;5073011;28;20433;-53